createdAt,value
2023-01-04T00:01:17.649Z,99044.44
2023-01-04T00:03:45.052Z,99044.16
2023-01-04T00:06:23.145Z,99043.50
2023-01-04T00:08:49.810Z,99029.84
2023-01-04T00:11:21.220Z,99024.97
2023-01-04T00:13:49.751Z,99016.22
2023-01-04T00:16:21.384Z,99016.31
2023-01-04T00:18:48.659Z,99023.38
2023-01-04T00:21:26.135Z,99025.50
2023-01-04T00:23:55.086Z,99024.56
2023-01-04T00:26:24.657Z,99007.81
2023-01-04T00:28:56.002Z,99010.00
2023-01-04T00:31:23.989Z,98997.47
2023-01-04T00:33:54.504Z,98976.03
2023-01-04T00:36:25.480Z,99001.38
2023-01-04T00:39:07.968Z,98973.91
2023-01-04T00:42:02.181Z,98991.09
2023-01-04T00:44:30.355Z,98968.16
2023-01-04T00:47:03.199Z,98974.97
2023-01-04T00:49:30.956Z,98968.59
2023-01-04T00:51:58.516Z,98960.00
2023-01-04T00:54:26.432Z,98972.19
2023-01-04T00:56:53.369Z,98913.34
2023-01-04T00:59:21.527Z,98958.81
2023-01-04T01:01:49.163Z,98947.94
2023-01-04T01:04:19.396Z,98946.13
2023-01-04T01:06:46.516Z,98937.06
2023-01-04T01:09:13.296Z,98904.56
2023-01-04T01:11:46.175Z,98946.59
2023-01-04T01:14:17.458Z,98915.66
2023-01-04T01:16:55.218Z,98904.19
2023-01-04T01:19:23.995Z,98893.31
2023-01-04T01:21:53.813Z,98881.13
2023-01-04T01:24:22.078Z,98879.94
2023-01-04T01:26:48.835Z,98888.06
2023-01-04T01:29:15.376Z,98887.84
2023-01-04T01:31:42.910Z,98862.50
2023-01-04T01:34:09.707Z,98890.84
2023-01-04T01:36:37.205Z,98891.66
2023-01-04T01:39:06.919Z,98900.97
2023-01-04T01:41:35.347Z,98897.38
2023-01-04T01:44:27.108Z,98886.66
2023-01-04T01:46:54.724Z,98870.13
2023-01-04T01:49:34.021Z,98873.97
2023-01-04T01:52:04.022Z,98858.69
2023-01-04T01:54:39.945Z,98861.22
2023-01-04T01:57:09.617Z,98843.84
2023-01-04T01:59:40.287Z,98846.25
2023-01-04T02:02:06.993Z,98851.75
2023-01-04T02:04:38.202Z,98838.47
2023-01-04T02:07:06.046Z,98841.94
2023-01-04T02:09:43.381Z,98847.06
2023-01-04T02:12:14.372Z,98838.22
2023-01-04T02:14:43.956Z,98828.19
2023-01-04T02:17:34.873Z,98819.25
2023-01-04T02:20:20.292Z,98817.34
2023-01-04T02:23:28.303Z,98807.78
2023-01-04T02:26:31.087Z,98794.88
2023-01-04T02:29:10.069Z,98790.31
2023-01-04T02:31:42.404Z,98773.84
2023-01-04T02:34:20.908Z,98810.16
2023-01-04T02:37:19.476Z,98786.53
2023-01-04T02:39:45.851Z,98792.63
2023-01-04T02:42:21.437Z,98781.97
2023-01-04T02:44:53.340Z,98762.88
2023-01-04T02:47:48.932Z,98763.13
2023-01-04T02:50:32.240Z,98761.66
2023-01-04T02:53:06.741Z,98750.44
2023-01-04T02:55:46.877Z,98749.28
2023-01-04T02:58:47.132Z,98737.78
2023-01-04T03:01:37.826Z,98743.03
2023-01-04T03:04:57.510Z,98730.66
2023-01-04T03:07:36.168Z,98734.44
2023-01-04T03:10:34.066Z,98720.47
2023-01-04T03:13:26.888Z,98714.66
2023-01-04T03:15:57.375Z,98707.00
2023-01-04T03:18:30.207Z,98705.78
2023-01-04T03:20:59.292Z,98695.28
2023-01-04T03:23:48.108Z,98699.59
2023-01-04T03:26:42.343Z,98691.72
2023-01-04T03:29:39.892Z,98690.25
2023-01-04T03:32:41.577Z,98663.19
2023-01-04T03:35:23.289Z,98664.94
2023-01-04T03:38:26.893Z,98673.31
2023-01-04T03:41:19.281Z,98659.34
2023-01-04T03:44:13.293Z,98648.47
2023-01-04T03:47:06.344Z,98645.13
2023-01-04T03:49:49.897Z,98655.06
2023-01-04T03:52:17.882Z,98650.38
2023-01-04T03:54:51.456Z,98654.22
2023-01-04T03:57:18.603Z,98645.88
2023-01-04T03:59:51.959Z,98654.47
2023-01-04T04:02:23.512Z,98658.03
2023-01-04T04:05:09.097Z,98647.53
2023-01-04T04:07:54.081Z,98630.81
2023-01-04T04:10:20.490Z,98617.22
2023-01-04T04:12:49.890Z,98625.56
2023-01-04T04:15:16.462Z,98617.44
2023-01-04T04:17:42.868Z,98615.97
2023-01-04T04:20:10.697Z,98610.59
2023-01-04T04:22:37.142Z,98608.31
2023-01-04T04:25:03.855Z,98618.44
2023-01-04T04:27:32.791Z,98618.66
2023-01-04T04:29:59.178Z,98620.91
2023-01-04T04:32:25.585Z,98626.06
2023-01-04T04:34:52.004Z,98619.50
2023-01-04T04:37:18.401Z,98617.16
2023-01-04T04:39:44.794Z,98625.63
2023-01-04T04:42:11.206Z,98626.84
2023-01-04T04:44:37.836Z,98619.91
2023-01-04T04:47:04.251Z,98629.84
2023-01-04T04:49:30.662Z,98624.00
2023-01-04T04:51:59.535Z,98632.84
2023-01-04T04:54:26.061Z,98622.59
2023-01-04T04:56:52.499Z,98628.06
2023-01-04T04:59:19.088Z,98611.59
2023-01-04T05:01:45.636Z,98613.38
2023-01-04T05:04:17.066Z,98607.28
2023-01-04T05:06:44.703Z,98609.91
2023-01-04T05:09:12.528Z,98604.88
2023-01-04T05:11:58.116Z,98613.81
2023-01-04T05:14:24.941Z,98600.53
2023-01-04T05:16:51.464Z,98553.00
2023-01-04T05:19:18.077Z,98591.72
2023-01-04T05:21:44.620Z,98594.09
2023-01-04T05:24:12.247Z,98601.97
2023-01-04T05:26:39.347Z,98581.38
2023-01-04T05:29:06.254Z,98576.38
2023-01-04T05:31:34.078Z,98566.56
2023-01-04T05:34:00.600Z,98559.06
2023-01-04T05:36:27.530Z,98559.91
2023-01-04T05:38:53.923Z,98558.22
2023-01-04T05:41:38.834Z,98552.13
2023-01-04T05:44:05.311Z,98547.06
2023-01-04T05:46:31.805Z,98501.88
2023-01-04T05:48:58.458Z,98496.84
2023-01-04T05:51:24.825Z,98487.69
2023-01-04T05:53:51.355Z,98464.63
2023-01-04T05:56:17.788Z,98435.56
2023-01-04T05:58:44.203Z,98423.13
2023-01-04T06:01:11.653Z,98351.88
2023-01-04T06:03:38.163Z,98398.09
2023-01-04T06:06:04.689Z,98400.91
2023-01-04T06:08:31.146Z,98370.59
2023-01-04T06:10:57.531Z,98393.66
2023-01-04T06:13:24.087Z,98366.25
2023-01-04T06:15:51.030Z,98366.81
2023-01-04T06:18:17.535Z,98342.03
2023-01-04T06:20:44.092Z,98341.94
2023-01-04T06:23:10.744Z,98313.38
2023-01-04T06:25:38.220Z,98292.38
2023-01-04T06:28:04.652Z,98258.13
2023-01-04T06:30:31.156Z,98248.00
2023-01-04T06:32:57.601Z,98211.38
2023-01-04T06:35:24.014Z,98206.09
2023-01-04T06:37:50.432Z,98132.38
2023-01-04T06:40:19.749Z,98164.91
2023-01-04T06:42:46.348Z,98135.88
2023-01-04T06:45:14.697Z,98124.28
2023-01-04T06:47:41.628Z,98134.78
2023-01-04T06:50:09.021Z,98115.84
2023-01-04T06:52:35.572Z,98111.28
2023-01-04T06:55:02.057Z,98114.03
2023-01-04T06:57:28.511Z,98122.22
2023-01-04T06:59:54.953Z,98117.53
2023-01-04T07:02:21.564Z,98137.56
2023-01-04T07:04:48.736Z,98129.81
2023-01-04T07:07:15.308Z,98142.84
2023-01-04T07:09:41.741Z,98147.13
2023-01-04T07:12:08.169Z,98143.66
2023-01-04T07:14:34.703Z,98142.28
2023-01-04T07:17:01.141Z,98139.25
2023-01-04T07:19:34.909Z,98127.06
2023-01-04T07:22:01.862Z,98138.69
2023-01-04T07:24:30.617Z,98162.75
2023-01-04T07:26:59.850Z,98146.56
2023-01-04T07:29:26.599Z,98151.97
2023-01-04T07:31:55.177Z,98143.09
2023-01-04T07:34:23.980Z,98151.41
2023-01-04T07:36:50.891Z,98158.63
2023-01-04T07:39:18.930Z,98170.22
2023-01-04T07:41:45.963Z,98157.78
2023-01-04T07:44:13.258Z,98178.25
2023-01-04T07:46:43.046Z,98158.31
2023-01-04T07:49:17.754Z,98180.63
2023-01-04T07:51:46.099Z,98168.84
2023-01-04T07:54:12.989Z,98161.94
2023-01-04T07:56:39.518Z,98201.66
2023-01-04T07:59:08.263Z,98162.75
2023-01-04T08:01:35.759Z,98166.78
2023-01-04T08:04:02.417Z,98186.72
2023-01-04T08:06:28.869Z,98173.44
2023-01-04T08:08:55.604Z,98191.97
2023-01-04T08:11:25.061Z,98166.34
2023-01-04T08:13:52.026Z,98176.88
2023-01-04T08:16:27.736Z,98171.19
2023-01-04T08:18:56.019Z,98175.78
2023-01-04T08:21:23.603Z,98181.03
2023-01-04T08:23:50.237Z,98173.81
2023-01-04T08:26:17.052Z,98162.78
2023-01-04T08:28:45.723Z,98161.94
2023-01-04T08:31:18.617Z,98160.94
2023-01-04T08:33:45.579Z,98175.78
2023-01-04T08:36:27.084Z,98152.09
2023-01-04T08:39:01.704Z,98143.91
2023-01-04T08:41:56.668Z,98147.22
2023-01-04T08:44:18.572Z,98157.47
2023-01-04T08:46:45.345Z,98159.00
2023-01-04T08:49:12.064Z,98152.22
2023-01-04T08:51:39.020Z,98152.78
2023-01-04T08:54:05.585Z,98156.94
2023-01-04T08:56:32.026Z,98168.13
2023-01-04T08:58:58.460Z,98166.59
2023-01-04T09:01:24.960Z,98170.22
2023-01-04T09:03:51.512Z,98164.94
2023-01-04T09:06:18.998Z,98169.38
2023-01-04T09:08:45.380Z,98182.66
2023-01-04T09:11:16.032Z,98191.50
2023-01-04T09:13:49.598Z,98197.91
2023-01-04T09:16:19.551Z,98197.22
2023-01-04T09:18:47.138Z,98222.97
2023-01-04T09:21:16.520Z,98196.53
2023-01-04T09:23:43.704Z,98214.25
2023-01-04T09:26:15.813Z,98172.44
2023-01-04T09:28:43.352Z,98165.91
2023-01-04T09:31:12.988Z,98184.34
2023-01-04T09:34:12.866Z,98163.28
2023-01-04T09:36:26.309Z,98146.53
2023-01-04T09:38:52.855Z,98136.38
2023-01-04T09:41:30.303Z,98122.53
2023-01-04T09:44:04.159Z,98142.78
2023-01-04T09:46:42.584Z,98138.63
2023-01-04T09:50:00.857Z,98126.13
2023-01-04T09:52:55.072Z,98090.97
2023-01-04T09:55:38.384Z,98115.88
2023-01-04T09:58:19.686Z,98080.16
2023-01-04T10:01:15.260Z,98072.41
2023-01-04T10:03:58.310Z,98079.31
2023-01-04T10:06:24.771Z,98059.81
2023-01-04T10:08:51.390Z,98070.75
2023-01-04T10:11:49.280Z,98091.53
2023-01-04T10:14:50.747Z,98059.25
2023-01-04T10:18:57.563Z,98063.53
2023-01-04T10:23:58.771Z,97961.53
2023-01-04T10:26:37.533Z,97935.38
2023-01-04T10:29:41.866Z,97936.59
2023-01-04T10:32:41.869Z,97940.16
2023-01-04T10:35:35.293Z,97951.50
2023-01-04T10:38:14.335Z,97940.66
2023-01-04T10:40:41.313Z,97938.75
2023-01-04T10:43:15.999Z,97965.38
2023-01-04T10:45:58.174Z,97930.44
2023-01-04T10:48:32.357Z,97937.63
2023-01-04T10:51:09.651Z,97920.97
2023-01-04T10:54:07.065Z,97920.69
2023-01-04T10:56:49.396Z,97907.91
2023-01-04T10:59:18.741Z,97905.63
2023-01-04T11:02:07.788Z,97897.19
2023-01-04T11:04:39.159Z,97864.34
2023-01-04T11:07:24.790Z,97875.91
2023-01-04T11:09:55.088Z,97881.41
2023-01-04T11:12:23.680Z,97878.09
2023-01-04T11:14:51.371Z,97877.78
2023-01-04T11:17:19.967Z,97874.19
2023-01-04T11:19:46.991Z,97861.06
2023-01-04T11:22:25.924Z,97862.41
2023-01-04T11:28:16.110Z,97859.63
2023-01-04T11:30:53.765Z,97854.50
2023-01-04T11:33:22.271Z,97849.81
2023-01-04T11:35:51.657Z,97843.66
2023-01-04T11:38:21.038Z,97848.41
2023-01-04T11:41:02.381Z,97842.69
2023-01-04T11:43:31.354Z,97851.56
2023-01-04T11:45:59.358Z,97859.19
2023-01-04T11:48:43.676Z,97848.19
2023-01-04T11:51:26.674Z,97847.72
2023-01-04T11:54:15.393Z,97858.66
2023-01-04T11:56:58.495Z,97846.16
2023-01-04T11:59:25.819Z,97855.84
2023-01-04T12:02:12.760Z,97841.91
2023-01-04T12:04:43.796Z,97849.16
2023-01-04T12:07:30.556Z,97846.50
2023-01-04T12:09:59.678Z,97835.97
2023-01-04T12:12:30.394Z,97833.03
2023-01-04T12:15:00.181Z,97836.97
2023-01-04T12:17:43.538Z,97854.16
2023-01-04T12:20:19.606Z,97825.81
2023-01-04T12:22:46.709Z,97821.22
2023-01-04T12:25:31.769Z,97846.75
2023-01-04T12:27:58.341Z,97824.50
2023-01-04T12:30:45.684Z,97801.47
2023-01-04T12:33:30.249Z,97806.44
2023-01-04T12:36:06.952Z,97807.25
2023-01-04T12:39:01.592Z,97807.41
2023-01-04T12:41:34.041Z,97785.63
2023-01-04T12:44:07.205Z,97807.41
2023-01-04T12:46:59.774Z,97794.22
2023-01-04T12:49:26.118Z,97791.94
2023-01-04T12:52:29.518Z,97789.66
2023-01-04T12:55:00.508Z,97773.47
2023-01-04T12:57:38.553Z,97788.97
2023-01-04T13:00:13.935Z,97755.34
2023-01-04T13:03:18.482Z,97749.88
2023-01-04T13:06:03.902Z,97722.69
2023-01-04T13:08:33.877Z,97715.97
2023-01-04T13:11:05.044Z,97711.53
2023-01-04T13:13:49.499Z,97690.59
2023-01-04T13:16:34.371Z,97658.94
2023-01-04T13:19:04.041Z,97694.41
2023-01-04T13:21:39.503Z,97676.59
2023-01-04T13:24:23.561Z,97655.69
2023-01-04T13:26:51.375Z,97671.66
2023-01-04T13:29:24.024Z,97660.78
2023-01-04T13:31:54.387Z,97647.09
2023-01-04T13:34:25.740Z,97635.06
2023-01-04T13:37:12.138Z,97626.19
2023-01-04T13:39:41.768Z,97612.66
2023-01-04T13:42:27.364Z,97623.22
2023-01-04T13:45:19.020Z,97618.59
2023-01-04T13:47:42.134Z,97605.72
2023-01-04T13:50:36.067Z,97600.47
2023-01-04T13:53:07.950Z,97624.22
2023-01-04T13:55:37.597Z,97606.38
2023-01-04T13:58:07.270Z,97619.25
2023-01-04T14:00:50.005Z,97637.72
2023-01-04T14:03:31.352Z,97627.69
2023-01-04T14:06:24.260Z,97643.66
2023-01-04T14:08:59.962Z,97659.50
2023-01-04T14:12:06.329Z,97644.03
2023-01-04T14:14:53.847Z,97625.69
2023-01-04T14:17:29.815Z,97660.84
2023-01-04T14:20:05.949Z,97674.69
2023-01-04T14:22:42.370Z,97663.63
2023-01-04T14:25:36.986Z,97678.34
2023-01-04T14:28:22.810Z,97690.19
2023-01-04T14:30:52.620Z,97699.78
2023-01-04T14:33:39.307Z,97694.50
2023-01-04T14:36:13.256Z,97724.50
2023-01-04T14:38:55.617Z,97711.63
2023-01-04T14:41:29.590Z,97690.53
2023-01-04T14:43:55.999Z,97697.47
2023-01-04T14:46:23.127Z,97684.41
2023-01-04T14:48:49.818Z,97694.16
2023-01-04T14:51:19.551Z,97688.88
2023-01-04T14:53:48.394Z,97717.41
2023-01-04T14:56:17.200Z,97694.00
2023-01-04T14:58:44.796Z,97697.47
2023-01-04T15:01:12.472Z,97676.34
2023-01-04T15:03:39.402Z,97667.41
2023-01-04T15:06:06.906Z,97670.41
2023-01-04T15:08:33.927Z,97667.09
2023-01-04T15:11:00.598Z,97662.13
2023-01-04T15:13:27.151Z,97672.69
2023-01-04T15:15:53.620Z,97648.94
2023-01-04T15:18:20.074Z,97646.16
2023-01-04T15:20:47.177Z,97631.31
2023-01-04T15:23:13.577Z,97623.25
2023-01-04T15:25:40.928Z,97638.06
2023-01-04T15:28:07.856Z,97603.09
2023-01-04T15:30:34.533Z,97583.31
2023-01-04T15:33:01.028Z,97573.75
2023-01-04T15:35:27.640Z,97555.94
2023-01-04T15:37:54.051Z,97544.06
2023-01-04T15:40:20.558Z,97526.91
2023-01-04T15:42:58.837Z,97527.91
2023-01-04T15:45:30.377Z,97528.88
2023-01-04T15:48:03.160Z,97505.47
2023-01-04T15:50:33.157Z,97480.03
2023-01-04T15:52:59.602Z,97499.53
2023-01-04T15:55:30.843Z,97483.34
2023-01-04T15:58:00.508Z,97490.59
2023-01-04T16:00:27.582Z,97473.44
2023-01-04T16:02:54.509Z,97504.97
2023-01-04T16:05:21.149Z,97459.28
2023-01-04T16:07:48.179Z,97463.41
2023-01-04T16:10:15.346Z,97469.34
2023-01-04T16:12:42.254Z,97444.75
2023-01-04T16:15:15.234Z,97445.59
2023-01-04T16:17:43.494Z,97432.88
2023-01-04T16:20:12.417Z,97429.06
2023-01-04T16:22:39.173Z,97434.13
2023-01-04T16:25:11.680Z,97443.38
2023-01-04T16:27:39.370Z,97457.91
2023-01-04T16:30:09.245Z,97433.53
2023-01-04T16:32:36.717Z,97422.63
2023-01-04T16:35:04.100Z,97419.50
2023-01-04T16:37:30.842Z,97409.47
2023-01-04T16:40:06.235Z,97418.38
2023-01-04T16:42:33.586Z,97385.22
2023-01-04T16:45:04.755Z,97387.59
2023-01-04T16:47:39.655Z,97364.63
2023-01-04T16:50:07.239Z,97393.88
2023-01-04T16:52:33.757Z,97411.84
2023-01-04T16:55:00.357Z,97406.38
2023-01-04T16:57:27.123Z,97408.09
2023-01-04T16:59:53.770Z,97421.94
2023-01-04T17:02:20.707Z,97396.88
2023-01-04T17:04:52.894Z,97390.25
2023-01-04T17:07:19.330Z,97372.53
2023-01-04T17:09:46.594Z,97381.16
2023-01-04T17:15:40.736Z,97355.97
2023-01-04T17:17:47.194Z,97392.84
2023-01-04T17:20:13.696Z,97346.72
2023-01-04T17:22:40.678Z,97375.44
2023-01-04T17:25:07.627Z,97362.91
2023-01-04T17:27:35.898Z,97347.41
2023-01-04T17:30:03.914Z,97340.13
2023-01-04T17:32:32.609Z,97313.94
2023-01-04T17:34:59.639Z,97307.81
2023-01-04T17:37:27.012Z,97291.69
2023-01-04T17:39:54.460Z,97261.44
2023-01-04T17:42:21.613Z,97255.09
2023-01-04T17:44:50.265Z,97205.00
2023-01-04T17:47:16.749Z,97185.91
2023-01-04T17:49:43.770Z,97157.41
2023-01-04T17:52:13.686Z,97111.81
2023-01-04T17:54:43.008Z,97108.41
2023-01-04T17:57:09.884Z,97072.66
2023-01-04T17:59:36.597Z,97022.69
2023-01-04T18:02:03.157Z,96959.19
2023-01-04T18:04:29.947Z,96945.00
2023-01-04T18:06:56.480Z,96916.19
2023-01-04T18:09:24.950Z,96911.16
2023-01-04T18:11:57.124Z,96840.50
2023-01-04T18:14:24.454Z,96874.25
2023-01-04T18:16:57.617Z,96852.13
2023-01-04T18:19:27.426Z,96836.94
2023-01-04T18:21:54.610Z,96823.38
2023-01-04T18:24:38.156Z,96819.16
2023-01-04T18:27:24.377Z,96819.91
2023-01-04T18:29:59.316Z,96808.34
2023-01-04T18:32:28.496Z,96792.78
2023-01-04T18:34:54.998Z,96782.63
2023-01-04T18:37:21.599Z,96788.69
2023-01-04T18:39:48.685Z,96805.44
2023-01-04T18:42:18.381Z,96793.22
2023-01-04T18:44:48.836Z,96803.16
2023-01-04T18:47:19.735Z,96799.53
2023-01-04T18:49:47.565Z,96803.06
2023-01-04T18:52:14.051Z,96809.84
2023-01-04T18:54:40.540Z,96816.13
2023-01-04T18:57:07.027Z,96820.78
2023-01-04T18:59:33.590Z,96846.25
2023-01-04T19:02:01.671Z,96869.59
2023-01-04T19:04:33.394Z,96869.81
2023-01-04T19:07:00.272Z,96918.50
2023-01-04T19:09:26.845Z,96931.88
2023-01-04T19:12:07.528Z,96947.91
2023-01-04T19:14:34.404Z,96964.47
2023-01-04T19:17:00.895Z,96955.31
2023-01-04T19:19:27.445Z,96948.53
2023-01-04T19:21:54.105Z,96937.34
2023-01-04T19:24:20.655Z,96933.00
2023-01-04T19:26:47.165Z,96901.97
2023-01-04T19:29:13.890Z,96902.03
2023-01-04T19:31:40.332Z,96880.31
2023-01-04T19:34:09.915Z,96845.13
2023-01-04T19:36:38.451Z,96818.88
2023-01-04T19:39:11.426Z,96808.34
2023-01-04T19:41:38.551Z,96807.97
2023-01-04T19:44:07.644Z,96803.31
2023-01-04T19:46:34.138Z,96795.06
2023-01-04T19:49:00.647Z,96797.91
2023-01-04T19:51:30.164Z,96795.84
2023-01-04T19:53:56.882Z,96756.44
2023-01-04T19:56:23.313Z,96760.72
2023-01-04T19:58:50.134Z,96762.97
2023-01-04T20:01:19.207Z,96787.53
2023-01-04T20:03:46.370Z,96776.97
2023-01-04T20:06:16.220Z,96743.09
2023-01-04T20:08:46.086Z,96817.84
2023-01-04T20:11:12.870Z,96815.00
2023-01-04T20:13:40.007Z,96890.25
2023-01-04T20:16:06.837Z,96883.97
2023-01-04T20:18:36.615Z,96910.78
2023-01-04T20:21:14.090Z,96949.63
2023-01-04T20:23:42.650Z,97005.13
2023-01-04T20:26:15.933Z,97022.31
2023-01-04T20:28:44.108Z,97084.25
2023-01-04T20:31:13.532Z,97114.16
2023-01-04T20:33:40.204Z,97105.50
2023-01-04T20:36:16.363Z,97129.66
2023-01-04T20:38:44.973Z,97141.06
2023-01-04T20:41:17.424Z,97186.63
2023-01-04T20:43:46.495Z,97191.94
2023-01-04T20:46:16.043Z,97221.47
2023-01-04T20:48:43.704Z,97234.03
2023-01-04T20:51:27.918Z,97269.59
2023-01-04T20:53:55.156Z,97294.69
2023-01-04T20:56:24.054Z,97285.56
2023-01-04T20:58:51.096Z,97300.72
2023-01-04T21:01:19.540Z,97312.59
2023-01-04T21:03:46.659Z,97301.44
2023-01-04T21:06:30.595Z,97347.78
2023-01-04T21:08:56.993Z,97362.00
2023-01-04T21:11:23.651Z,97376.97
2023-01-04T21:13:51.719Z,97390.66
2023-01-04T21:16:18.308Z,97402.56
2023-01-04T21:18:50.035Z,97354.31
2023-01-04T21:21:26.295Z,97418.31
2023-01-04T21:24:00.901Z,97439.22
2023-01-04T21:26:27.573Z,97439.59
2023-01-04T21:28:54.127Z,97469.34
2023-01-04T21:31:24.056Z,97466.53
2023-01-04T21:33:54.207Z,97481.84
2023-01-04T21:36:31.085Z,97489.91
2023-01-04T21:39:02.081Z,97503.69
2023-01-04T21:41:28.531Z,97507.94
2023-01-04T21:43:57.034Z,97506.63
2023-01-04T21:46:24.767Z,97501.75
2023-01-04T21:48:56.621Z,97516.84
2023-01-04T21:51:36.560Z,97524.75
2023-01-04T21:54:03.918Z,97525.00
2023-01-04T21:56:31.506Z,97523.47
2023-01-04T21:58:58.107Z,97521.47
2023-01-04T22:01:34.174Z,97534.28
2023-01-04T22:04:02.016Z,97518.41
2023-01-04T22:06:42.832Z,97522.06
2023-01-04T22:09:09.297Z,97544.00
2023-01-04T22:11:35.827Z,97534.91
2023-01-04T22:14:02.858Z,97512.19
2023-01-04T22:16:29.511Z,97518.94
2023-01-04T22:18:59.719Z,97503.97
2023-01-04T22:21:27.051Z,97536.44
2023-01-04T22:23:54.238Z,97532.31
2023-01-04T22:26:20.693Z,97525.91
2023-01-04T22:28:47.144Z,97495.41
2023-01-04T22:31:14.141Z,97503.47
2023-01-04T22:33:42.124Z,97509.75
2023-01-04T22:36:15.677Z,97492.94
2023-01-04T22:38:46.487Z,97483.41
2023-01-04T22:41:19.273Z,97461.34
2023-01-04T22:43:46.217Z,97456.94
2023-01-04T22:46:16.195Z,97446.53
2023-01-04T22:48:44.973Z,97419.28
2023-01-04T22:51:16.727Z,97409.06
2023-01-04T22:53:43.773Z,97411.88
2023-01-04T22:56:22.009Z,97416.44
2023-01-04T22:58:53.845Z,97415.75
2023-01-04T23:01:23.003Z,97421.38
2023-01-04T23:03:51.981Z,97430.72
2023-01-04T23:06:19.861Z,97447.00
2023-01-04T23:08:46.420Z,97439.47
2023-01-04T23:11:18.416Z,97428.31
2023-01-04T23:13:45.440Z,97413.13
2023-01-04T23:16:14.834Z,97405.34
2023-01-04T23:18:42.368Z,97388.69
2023-01-04T23:21:09.131Z,97392.25
2023-01-04T23:23:35.643Z,97395.44
2023-01-04T23:26:07.107Z,97406.13
2023-01-04T23:28:36.970Z,97423.13
2023-01-04T23:31:07.755Z,97447.25
2023-01-04T23:33:36.808Z,97453.75
2023-01-04T23:36:11.192Z,97468.97
2023-01-04T23:38:40.040Z,97482.50
2023-01-04T23:41:07.274Z,97504.72
2023-01-04T23:43:39.228Z,97512.69
2023-01-04T23:46:12.152Z,97516.09
2023-01-04T23:48:39.124Z,97521.16
2023-01-04T23:51:05.727Z,97551.47
2023-01-04T23:53:32.206Z,97561.88
2023-01-04T23:56:00.500Z,97572.00
2023-01-04T23:58:27.595Z,97570.59
